This is the latest recevied weather packets stored in our database for station/object KM4FZA. If no packets are shown the sender has not sent any weather packets the latest 10 day(s).
| Time | Temp. | Humidity | Pressure | Rain* | Wind** | Luminosity | Snow |
|---|---|---|---|---|---|---|---|
| 1777466738 | 16.11° C | 96% | 1016.5 hPa | 0 mm | - | - | - |
| 1777466123 | 16.11° C | 97% | 1016.6 hPa | 0 mm | - | - | - |
| 1777465529 | 15.56° C | 99% | 1016.6 hPa | 0 mm | - | - | - |
| 1777464342 | 15° C | 99% | 1016.7 hPa | 0 mm | - | - | - |
| 1777461926 | 14.44° C | 99% | 1017.4 hPa | 0 mm | - | - | - |
| 1777459530 | 13.89° C | 99% | 1017.7 hPa | 0 mm | - | - | - |
| 1777458917 | 13.89° C | 99% | 1017.5 hPa | 0 mm | - | - | - |
| 1777457116 | 13.33° C | 99% | 1017.6 hPa | 0 mm | - | - | - |
| 1777454720 | 12.22° C | 99% | 1017.7 hPa | 0 mm | - | - | - |
| 1777448721 | 12.78° C | 99% | 1017.3 hPa | 0 mm | - | - | - |
| 1777444523 | 13.33° C | 99% | 1018.5 hPa | 0 mm | - | - | - |
| 1777442722 | 13.33° C | 99% | 1018.7 hPa | 0 mm | - | - | - |
| 1777441554 | 13.33° C | 99% | 1018.2 hPa | 0 mm | - | - | - |
| 1777439731 | 13.33° C | 99% | 1018.1 hPa | 0 mm | - | - | - |
| 1777434327 | 14.44° C | 95% | 1020.3 hPa | 0 mm | - | - | - |
| 1777431318 | 14.44° C | 94% | 1020.8 hPa | 0 mm | - | - | - |
| 1777428942 | 15.56° C | 90% | 1021.4 hPa | 0 mm | - | - | - |
| 1777420548 | 17.22° C | 80% | 1019.7 hPa | 0 mm | - | - | - |
| 1777416924 | 18.33° C | 73% | 1019.6 hPa | 0 mm | - | - | - |
| 1777416330 | 18.33° C | 73% | 1019.9 hPa | 0 mm | - | - | - |
| 1777414529 | 18.89° C | 71% | 1020.4 hPa | 0 mm | - | - | - |
| 1777412747 | 18.89° C | 73% | 1020.8 hPa | 0 mm | - | - | - |
| 1777406742 | 18.89° C | 72% | 1021.3 hPa | 0 mm | - | - | - |
| 1777406116 | 18.89° C | 72% | 1021.5 hPa | 0 mm | - | - | - |
| 1777394118 | 16.11° C | 85% | 1024.2 hPa | 0 mm | - | - | - |
* Rain latest hour (hover to see other rain measurements)
** Current wind speed in m/s (hover to see current wind gust speed)